createdAt,value
2022-11-04T00:02:09.309Z,40.54
2022-11-04T00:04:36.569Z,40.02
2022-11-04T00:07:23.553Z,40.13
2022-11-04T00:09:50.395Z,39.93
2022-11-04T00:12:26.078Z,40.31
2022-11-04T00:14:53.816Z,39.95
2022-11-04T00:17:22.807Z,40.55
2022-11-04T00:20:12.637Z,41.33
2022-11-04T00:23:00.506Z,40.71
2022-11-04T00:25:46.459Z,40.68
2022-11-04T00:28:37.080Z,40.43
2022-11-04T00:31:24.657Z,40.19
2022-11-04T00:33:52.880Z,40.33
2022-11-04T00:36:19.654Z,40.94
2022-11-04T00:38:46.805Z,40.72
2022-11-04T00:41:30.084Z,40.43
2022-11-04T00:44:05.377Z,41.02
2022-11-04T00:46:33.873Z,41.51
2022-11-04T00:49:00.817Z,41.45
2022-11-04T00:51:28.669Z,41.35
2022-11-04T00:53:58.042Z,41.19
2022-11-04T00:56:24.961Z,41.58
2022-11-04T00:58:51.937Z,42.13
2022-11-04T01:01:19.743Z,41.82
2022-11-04T01:03:48.837Z,41.69
2022-11-04T01:06:16.532Z,42.55
2022-11-04T01:08:43.585Z,42.30
2022-11-04T01:11:10.935Z,41.78
2022-11-04T01:13:38.737Z,41.58
2022-11-04T01:16:08.536Z,42.34
2022-11-04T01:18:35.795Z,42.38
2022-11-04T01:21:04.849Z,42.24
2022-11-04T01:23:31.991Z,42.10
2022-11-04T01:25:58.712Z,41.94
2022-11-04T01:28:25.871Z,41.70
2022-11-04T01:30:53.604Z,41.73
2022-11-04T01:33:20.412Z,41.81
2022-11-04T01:35:47.117Z,42.48
2022-11-04T01:38:13.901Z,42.75
2022-11-04T01:40:41.251Z,41.92
2022-11-04T01:43:22.399Z,42.40
2022-11-04T01:45:58.482Z,41.88
2022-11-04T01:48:31.440Z,42.07
2022-11-04T01:51:00.097Z,42.45
2022-11-04T01:53:33.102Z,42.60
2022-11-04T01:56:04.417Z,42.79
2022-11-04T01:58:35.302Z,42.47
2022-11-04T02:01:02.789Z,42.76
2022-11-04T02:03:38.402Z,42.67
2022-11-04T02:06:06.466Z,43.11
2022-11-04T02:08:33.954Z,44.19
2022-11-04T02:11:02.793Z,43.53
2022-11-04T02:13:32.786Z,43.87
2022-11-04T02:16:24.788Z,43.63
2022-11-04T02:19:17.025Z,42.93
2022-11-04T02:22:05.070Z,42.91
2022-11-04T02:24:34.426Z,44.39
2022-11-04T02:27:19.687Z,43.28
2022-11-04T02:30:05.323Z,43.75
2022-11-04T02:32:55.402Z,43.63
2022-11-04T02:35:50.453Z,43.48
2022-11-04T02:38:53.380Z,43.66
2022-11-04T02:41:41.674Z,44.55
2022-11-04T02:44:20.674Z,44.28
2022-11-04T02:47:05.202Z,45.35
2022-11-04T02:49:38.653Z,45.23
2022-11-04T02:52:09.711Z,44.45
2022-11-04T02:54:43.047Z,44.54
2022-11-04T02:57:16.882Z,44.73
2022-11-04T02:59:53.875Z,44.71
2022-11-04T03:02:28.022Z,44.46
2022-11-04T03:04:57.471Z,44.81
2022-11-04T03:07:29.192Z,44.07
2022-11-04T03:10:02.605Z,44.65
2022-11-04T03:12:56.273Z,44.65
2022-11-04T03:15:28.921Z,44.66
2022-11-04T03:18:02.537Z,44.69
2022-11-04T03:20:31.693Z,45.15
2022-11-04T03:23:00.301Z,45.30
2022-11-04T03:25:32.577Z,45.74
2022-11-04T03:28:21.805Z,47.11
2022-11-04T03:30:54.477Z,46.83
2022-11-04T03:33:27.349Z,46.32
2022-11-04T03:35:54.420Z,46.80
2022-11-04T03:38:22.749Z,47.17
2022-11-04T03:40:50.553Z,47.52
2022-11-04T03:43:26.005Z,46.88
2022-11-04T03:45:53.929Z,47.20
2022-11-04T03:48:22.121Z,46.42
2022-11-04T03:50:49.926Z,46.15
2022-11-04T03:53:21.684Z,46.36
2022-11-04T03:56:09.669Z,46.47
2022-11-04T03:58:42.250Z,48.83
2022-11-04T04:01:17.911Z,47.09
2022-11-04T04:03:55.311Z,46.95
2022-11-04T04:06:29.751Z,46.17
2022-11-04T04:09:09.604Z,46.51
2022-11-04T04:11:44.203Z,46.34
2022-11-04T04:14:39.736Z,45.99
2022-11-04T04:17:34.476Z,45.64
2022-11-04T04:20:14.269Z,47.23
2022-11-04T04:22:47.002Z,46.74
2022-11-04T04:25:35.520Z,46.48
2022-11-04T04:28:04.797Z,47.30
2022-11-04T04:30:32.803Z,46.20
2022-11-04T04:33:13.750Z,47.13
2022-11-04T04:35:44.623Z,46.81
2022-11-04T04:38:56.029Z,46.68
2022-11-04T04:41:49.909Z,50.75
2022-11-04T04:44:41.454Z,47.69
2022-11-04T04:47:10.087Z,47.33
2022-11-04T04:49:36.933Z,46.25
2022-11-04T04:52:07.355Z,46.82
2022-11-04T04:54:34.242Z,47.59
2022-11-04T04:57:00.964Z,47.07
2022-11-04T04:59:27.898Z,47.22
2022-11-04T05:01:54.608Z,47.11
2022-11-04T05:04:21.584Z,46.95
2022-11-04T05:06:48.248Z,47.14
2022-11-04T05:09:15.056Z,46.98
2022-11-04T05:11:41.769Z,47.03
2022-11-04T05:14:08.622Z,47.44
2022-11-04T05:16:40.401Z,47.68
2022-11-04T05:19:08.024Z,47.52
2022-11-04T05:21:34.965Z,47.89
2022-11-04T05:24:01.881Z,47.51
2022-11-04T05:26:28.624Z,47.00
2022-11-04T05:28:55.355Z,47.58
2022-11-04T05:31:22.395Z,48.20
2022-11-04T05:33:49.400Z,47.34
2022-11-04T05:36:17.189Z,47.79
2022-11-04T05:38:44.490Z,47.63
2022-11-04T05:41:25.710Z,47.90
2022-11-04T05:43:54.099Z,48.25
2022-11-04T05:46:21.450Z,48.20
2022-11-04T05:48:48.587Z,47.52
2022-11-04T05:51:17.919Z,47.31
2022-11-04T05:53:44.702Z,48.11
2022-11-04T05:56:13.544Z,47.76
2022-11-04T05:58:40.409Z,48.21
2022-11-04T06:01:46.161Z,48.55
2022-11-04T06:04:15.907Z,48.18
2022-11-04T06:06:42.707Z,47.38
2022-11-04T06:09:09.953Z,48.11
2022-11-04T06:11:37.720Z,47.72
2022-11-04T06:14:04.871Z,47.93
2022-11-04T06:16:31.810Z,47.40
2022-11-04T06:19:01.631Z,46.83
2022-11-04T06:21:33.636Z,46.31
2022-11-04T06:24:00.684Z,48.72
2022-11-04T06:26:30.769Z,46.89
2022-11-04T06:28:57.733Z,47.40
2022-11-04T06:31:24.463Z,49.23
2022-11-04T06:33:51.380Z,48.89
2022-11-04T06:36:18.143Z,50.17
2022-11-04T06:38:45.457Z,49.67
2022-11-04T06:41:14.841Z,49.41
2022-11-04T06:43:42.011Z,50.01
2022-11-04T06:46:24.044Z,49.52
2022-11-04T06:48:51.012Z,49.45
2022-11-04T06:51:17.682Z,49.61
2022-11-04T06:53:44.506Z,49.56
2022-11-04T06:56:11.352Z,49.84
2022-11-04T06:58:38.157Z,49.59
2022-11-04T07:01:09.227Z,49.59
2022-11-04T07:03:40.784Z,48.59
2022-11-04T07:06:09.018Z,47.65
2022-11-04T07:08:36.071Z,47.71
2022-11-04T07:11:03.803Z,49.74
2022-11-04T07:13:30.833Z,46.94
2022-11-04T07:15:58.138Z,47.54
2022-11-04T07:18:25.012Z,47.20
2022-11-04T07:20:52.234Z,46.64
2022-11-04T07:23:19.345Z,46.44
2022-11-04T07:25:46.099Z,46.95
2022-11-04T07:28:13.307Z,45.54
2022-11-04T07:30:40.239Z,44.97
2022-11-04T07:33:07.090Z,47.63
2022-11-04T07:35:33.879Z,45.58
2022-11-04T07:38:00.842Z,45.82
2022-11-04T07:40:27.556Z,47.02
2022-11-04T07:42:54.233Z,45.32
2022-11-04T07:45:34.524Z,45.94
2022-11-04T07:48:01.261Z,46.40
2022-11-04T07:50:28.141Z,44.34
2022-11-04T07:52:55.130Z,44.54
2022-11-04T07:55:22.033Z,43.51
2022-11-04T07:57:48.812Z,44.25
2022-11-04T08:00:16.611Z,44.55
2022-11-04T08:02:47.013Z,43.68
2022-11-04T08:05:14.550Z,43.01
2022-11-04T08:07:42.742Z,43.26
2022-11-04T08:10:10.137Z,42.96
2022-11-04T08:12:38.255Z,41.96
2022-11-04T08:15:06.302Z,42.41
2022-11-04T08:17:33.154Z,40.96
2022-11-04T08:20:00.857Z,41.15
2022-11-04T08:22:32.767Z,41.65
2022-11-04T08:24:59.984Z,41.13
2022-11-04T08:27:26.773Z,40.56
2022-11-04T08:29:53.637Z,40.02
2022-11-04T08:32:20.363Z,39.74
2022-11-04T08:34:47.120Z,39.85
2022-11-04T08:37:15.687Z,42.62
2022-11-04T08:39:43.318Z,40.76
2022-11-04T08:42:10.448Z,40.26
2022-11-04T08:44:39.683Z,40.08
2022-11-04T08:47:06.395Z,39.10
2022-11-04T08:49:38.034Z,40.05
2022-11-04T08:52:05.743Z,39.09
2022-11-04T08:54:32.546Z,39.53
2022-11-04T08:56:59.314Z,38.96
2022-11-04T08:59:26.256Z,38.28
2022-11-04T09:01:53.243Z,38.38
2022-11-04T09:04:20.098Z,39.77
2022-11-04T09:06:47.777Z,38.73
2022-11-04T09:09:17.164Z,37.49
2022-11-04T09:11:45.134Z,38.05
2022-11-04T09:14:12.847Z,37.60
2022-11-04T09:16:41.070Z,36.26
2022-11-04T09:19:08.976Z,35.60
2022-11-04T09:21:36.447Z,35.99
2022-11-04T09:24:03.481Z,35.37
2022-11-04T09:26:30.385Z,34.55
2022-11-04T09:28:58.872Z,35.87
2022-11-04T09:31:28.103Z,35.89
2022-11-04T09:33:55.672Z,35.70
2022-11-04T09:36:22.776Z,35.10
2022-11-04T09:38:49.942Z,34.71
2022-11-04T09:41:42.722Z,34.07
2022-11-04T09:45:14.905Z,35.12
2022-11-04T09:47:32.435Z,34.67
2022-11-04T09:50:01.361Z,35.03
2022-11-04T09:52:32.983Z,35.60
2022-11-04T09:55:24.634Z,34.74
2022-11-04T09:57:55.922Z,36.02
2022-11-04T10:00:23.212Z,36.33
2022-11-04T10:03:16.013Z,35.15
2022-11-04T10:06:04.750Z,35.50
2022-11-04T10:08:46.466Z,34.18
2022-11-04T10:11:21.624Z,33.84
2022-11-04T10:13:57.443Z,34.58
2022-11-04T10:16:26.918Z,34.45
2022-11-04T10:19:08.643Z,34.23
2022-11-04T10:21:44.932Z,33.57
2022-11-04T10:24:30.172Z,34.22
2022-11-04T10:27:09.855Z,33.77
2022-11-04T10:29:50.394Z,34.30
2022-11-04T10:32:31.766Z,34.41
2022-11-04T10:35:13.285Z,33.77
2022-11-04T10:37:40.414Z,34.25
2022-11-04T10:40:22.419Z,33.64
2022-11-04T10:42:51.691Z,33.24
2022-11-04T10:45:24.934Z,32.16
2022-11-04T10:48:06.018Z,33.87
2022-11-04T10:50:41.219Z,34.21
2022-11-04T10:53:11.245Z,32.83
2022-11-04T10:55:47.047Z,32.66
2022-11-04T10:58:30.702Z,32.65
2022-11-04T11:00:58.265Z,32.81
2022-11-04T11:03:34.437Z,33.12
2022-11-04T11:06:13.109Z,31.97
2022-11-04T11:08:42.391Z,32.21
2022-11-04T11:11:10.063Z,32.00
2022-11-04T11:13:43.161Z,32.06
2022-11-04T11:16:17.527Z,33.01
2022-11-04T11:18:44.578Z,31.71
2022-11-04T11:21:21.312Z,31.14
2022-11-04T11:23:51.140Z,31.83
2022-11-04T11:26:32.267Z,32.44
2022-11-04T11:29:04.348Z,31.56
2022-11-04T11:31:39.390Z,31.12
2022-11-04T11:34:26.778Z,30.51
2022-11-04T11:36:56.509Z,30.62
2022-11-04T11:39:32.446Z,29.96
2022-11-04T11:42:02.261Z,29.88
2022-11-04T11:44:38.665Z,29.26
2022-11-04T11:47:16.917Z,28.26
2022-11-04T11:49:43.778Z,28.47
2022-11-04T11:52:17.879Z,28.72
2022-11-04T11:54:49.510Z,29.16
2022-11-04T11:57:34.668Z,29.34
2022-11-04T12:03:01.151Z,29.02
2022-11-04T12:11:48.925Z,29.23
2022-11-04T12:14:32.246Z,29.41
2022-11-04T12:17:20.891Z,29.88
2022-11-04T12:20:30.805Z,29.08
2022-11-04T12:23:21.791Z,28.68
2022-11-04T12:26:13.057Z,28.40
2022-11-04T12:29:10.236Z,28.31
2022-11-04T12:32:01.182Z,27.75
2022-11-04T12:35:05.380Z,27.68
2022-11-04T12:37:46.951Z,28.61
2022-11-04T12:40:33.955Z,29.13
2022-11-04T12:43:15.872Z,30.07
2022-11-04T12:45:55.291Z,29.90
2022-11-04T12:48:41.079Z,29.60
2022-11-04T12:51:25.646Z,29.31
2022-11-04T12:54:24.598Z,29.41
2022-11-04T12:57:11.702Z,30.46
2022-11-04T12:59:54.541Z,30.08
2022-11-04T13:02:39.800Z,29.92
2022-11-04T13:05:30.448Z,29.98
2022-11-04T13:08:13.976Z,30.34
2022-11-04T13:10:44.283Z,31.11
2022-11-04T13:13:15.053Z,31.03
2022-11-04T13:15:55.837Z,31.07
2022-11-04T13:18:26.153Z,31.00
2022-11-04T13:21:02.658Z,30.81
2022-11-04T13:23:36.784Z,31.27
2022-11-04T13:26:07.237Z,31.19
2022-11-04T13:28:37.266Z,30.97
2022-11-04T13:31:37.455Z,31.80
2022-11-04T13:34:20.526Z,31.53
2022-11-04T13:37:17.238Z,30.15
2022-11-04T13:39:51.539Z,29.19
2022-11-04T13:42:43.022Z,29.05
2022-11-04T13:45:17.160Z,29.73
2022-11-04T13:47:51.246Z,30.07
2022-11-04T13:50:36.785Z,30.59
2022-11-04T13:53:06.553Z,31.20
2022-11-04T13:55:35.551Z,31.32
2022-11-04T13:58:10.106Z,31.65
2022-11-04T14:00:37.650Z,31.85
2022-11-04T14:03:36.377Z,32.16
2022-11-04T14:06:06.888Z,32.50
2022-11-04T14:08:34.387Z,31.75
2022-11-04T14:11:05.279Z,31.90
2022-11-04T14:13:35.271Z,31.73
2022-11-04T14:16:04.785Z,32.24
2022-11-04T14:18:35.761Z,31.98
2022-11-04T14:21:10.486Z,33.10
2022-11-04T14:23:38.834Z,32.83
2022-11-04T14:26:11.726Z,32.70
2022-11-04T14:28:44.103Z,32.68
2022-11-04T14:31:17.765Z,33.14
2022-11-04T14:33:55.056Z,32.85
2022-11-04T14:36:21.833Z,33.59
2022-11-04T14:39:10.065Z,33.48
2022-11-04T14:41:40.090Z,33.59
2022-11-04T14:44:16.893Z,33.43
2022-11-04T14:46:46.533Z,33.98
2022-11-04T14:49:39.674Z,34.11
2022-11-04T14:52:19.535Z,33.88
2022-11-04T14:54:47.255Z,34.11
2022-11-04T14:57:19.543Z,34.12
2022-11-04T14:59:47.583Z,34.28
2022-11-04T15:02:25.626Z,34.13
2022-11-04T15:04:59.465Z,34.66
2022-11-04T15:07:34.305Z,34.46
2022-11-04T15:10:03.523Z,34.15
2022-11-04T15:12:48.732Z,34.21
2022-11-04T15:15:39.361Z,34.80
2022-11-04T15:18:09.738Z,34.68
2022-11-04T15:20:44.917Z,34.46
2022-11-04T15:23:16.259Z,35.21
2022-11-04T15:25:48.279Z,34.99
2022-11-04T15:28:21.298Z,35.19
2022-11-04T15:31:01.434Z,35.37
2022-11-04T15:33:29.474Z,35.28
2022-11-04T15:35:57.638Z,35.30
2022-11-04T15:38:28.686Z,35.50
2022-11-04T15:41:17.187Z,35.70
2022-11-04T15:43:44.608Z,35.38
2022-11-04T15:46:18.392Z,36.07
2022-11-04T15:49:20.903Z,36.56
2022-11-04T15:51:48.273Z,36.31
2022-11-04T15:54:23.398Z,35.85
2022-11-04T15:56:55.271Z,36.01
2022-11-04T15:59:28.437Z,36.29
2022-11-04T16:01:55.847Z,37.37
2022-11-04T16:04:26.331Z,36.79
2022-11-04T16:07:19.278Z,37.22
2022-11-04T16:09:50.692Z,37.55
2022-11-04T16:12:37.609Z,37.10
2022-11-04T16:15:04.793Z,38.23
2022-11-04T16:17:31.847Z,37.64
2022-11-04T16:20:06.017Z,37.95
2022-11-04T16:22:38.881Z,37.65
2022-11-04T16:25:08.228Z,37.50
2022-11-04T16:27:36.131Z,38.20
2022-11-04T16:30:05.912Z,38.16
2022-11-04T16:32:44.521Z,38.20
2022-11-04T16:35:26.535Z,38.15
2022-11-04T16:37:55.977Z,38.31
2022-11-04T16:40:24.662Z,38.25
2022-11-04T16:42:52.853Z,38.33
2022-11-04T16:45:24.043Z,38.04
2022-11-04T16:47:51.760Z,38.39
2022-11-04T16:50:18.976Z,38.46
2022-11-04T16:52:45.809Z,38.55
2022-11-04T16:55:14.904Z,38.31
2022-11-04T16:57:41.877Z,38.50
2022-11-04T17:00:09.320Z,38.98
2022-11-04T17:02:41.192Z,38.65
2022-11-04T17:05:09.085Z,39.02
2022-11-04T17:07:53.261Z,39.19
2022-11-04T17:10:27.995Z,39.05
2022-11-04T17:12:55.546Z,38.66
2022-11-04T17:15:22.669Z,39.33
2022-11-04T17:17:50.000Z,39.53
2022-11-04T17:20:18.995Z,40.03
2022-11-04T17:22:47.384Z,40.15
2022-11-04T17:25:26.068Z,40.82
2022-11-04T17:27:53.708Z,40.88
2022-11-04T17:30:22.630Z,40.52
2022-11-04T17:32:50.151Z,39.88
2022-11-04T17:35:17.157Z,40.88
2022-11-04T17:37:44.564Z,41.22
2022-11-04T17:40:17.796Z,40.52
2022-11-04T17:43:10.353Z,41.34
2022-11-04T17:45:39.368Z,40.86
2022-11-04T17:48:06.607Z,40.47
2022-11-04T17:50:33.966Z,40.11
2022-11-04T17:53:00.938Z,40.24
2022-11-04T17:55:28.045Z,40.30
2022-11-04T17:57:55.549Z,40.19
2022-11-04T18:00:25.889Z,39.86
2022-11-04T18:02:53.034Z,40.25
2022-11-04T18:05:21.302Z,40.26
2022-11-04T18:07:48.040Z,40.59
2022-11-04T18:10:14.880Z,40.37
2022-11-04T18:12:41.802Z,39.79
2022-11-04T18:15:11.666Z,40.09
2022-11-04T18:17:43.655Z,40.32
2022-11-04T18:20:14.608Z,40.37
2022-11-04T18:22:42.561Z,40.88
2022-11-04T18:25:10.185Z,40.65
2022-11-04T18:27:37.419Z,40.47
2022-11-04T18:30:05.633Z,39.94
2022-11-04T18:32:32.491Z,41.07
2022-11-04T18:34:59.249Z,40.93
2022-11-04T18:37:26.365Z,40.82
2022-11-04T18:39:54.108Z,40.52
2022-11-04T18:42:21.086Z,40.48
2022-11-04T18:44:47.782Z,39.99
2022-11-04T18:47:14.585Z,40.17
2022-11-04T18:49:42.792Z,40.27
2022-11-04T18:52:09.534Z,39.87
2022-11-04T18:54:36.371Z,40.57
2022-11-04T18:57:04.747Z,40.72
2022-11-04T18:59:31.646Z,40.60
2022-11-04T19:01:58.591Z,40.53
2022-11-04T19:04:25.377Z,40.64
2022-11-04T19:06:52.231Z,40.94
2022-11-04T19:09:45.353Z,40.97
2022-11-04T19:12:25.362Z,40.99
2022-11-04T19:14:52.879Z,41.09
2022-11-04T19:17:20.076Z,40.82
2022-11-04T19:19:46.955Z,41.18
2022-11-04T19:22:14.873Z,41.62
2022-11-04T19:24:41.697Z,41.38
2022-11-04T19:27:08.568Z,41.55
2022-11-04T19:29:35.714Z,41.64
2022-11-04T19:32:02.428Z,41.11
2022-11-04T19:34:29.378Z,41.48
2022-11-04T19:36:56.215Z,41.84
2022-11-04T19:39:22.959Z,41.56
2022-11-04T19:42:08.182Z,41.97
2022-11-04T19:44:35.177Z,41.97
2022-11-04T19:47:01.988Z,41.96
2022-11-04T19:49:31.734Z,41.31
2022-11-04T19:51:59.616Z,41.94
2022-11-04T19:54:28.245Z,42.86
2022-11-04T19:56:55.692Z,42.35
2022-11-04T19:59:22.646Z,42.05
2022-11-04T20:01:50.646Z,42.85
2022-11-04T20:04:17.739Z,41.68
2022-11-04T20:06:44.512Z,42.19
2022-11-04T20:09:11.441Z,42.63
2022-11-04T20:11:59.354Z,42.16
2022-11-04T20:14:27.262Z,41.50
2022-11-04T20:16:55.005Z,41.79
2022-11-04T20:19:23.055Z,42.60
2022-11-04T20:21:50.748Z,43.27
2022-11-04T20:24:18.099Z,42.85
2022-11-04T20:26:46.982Z,43.37
2022-11-04T20:29:16.119Z,43.54
2022-11-04T20:31:44.058Z,42.42
2022-11-04T20:34:12.599Z,43.24
2022-11-04T20:36:39.823Z,42.64
2022-11-04T20:39:17.741Z,42.76
2022-11-04T20:41:45.762Z,42.96
2022-11-04T20:44:14.381Z,42.40
2022-11-04T20:46:42.070Z,43.15
2022-11-04T20:49:08.848Z,43.35
2022-11-04T20:51:38.614Z,43.06
2022-11-04T20:54:07.060Z,42.44
2022-11-04T20:56:36.988Z,42.94
2022-11-04T20:59:06.093Z,42.76
2022-11-04T21:01:39.273Z,44.90
2022-11-04T21:04:11.305Z,43.61
2022-11-04T21:06:39.698Z,44.19
2022-11-04T21:09:09.229Z,45.03
2022-11-04T21:11:36.468Z,44.78
2022-11-04T21:14:03.760Z,45.03
2022-11-04T21:16:30.570Z,45.39
2022-11-04T21:18:57.953Z,44.72
2022-11-04T21:21:27.841Z,46.12
2022-11-04T21:24:03.373Z,44.86
2022-11-04T21:26:34.044Z,45.92
2022-11-04T21:29:03.957Z,47.22
2022-11-04T21:31:32.302Z,47.91
2022-11-04T21:34:00.699Z,46.88
2022-11-04T21:36:27.849Z,46.18
2022-11-04T21:38:54.569Z,46.82
2022-11-04T21:41:26.264Z,46.71
2022-11-04T21:43:58.277Z,45.59
2022-11-04T21:46:27.042Z,46.35
2022-11-04T21:48:55.530Z,45.72
2022-11-04T21:51:24.464Z,46.14
2022-11-04T21:53:52.883Z,46.77
2022-11-04T21:56:23.106Z,45.72
2022-11-04T21:58:51.768Z,45.28
2022-11-04T22:01:21.356Z,46.44
2022-11-04T22:03:53.830Z,45.29
2022-11-04T22:06:21.400Z,45.66
2022-11-04T22:08:54.016Z,45.33
2022-11-04T22:11:24.209Z,45.37
2022-11-04T22:13:56.921Z,46.67
2022-11-04T22:16:27.205Z,45.74
2022-11-04T22:18:55.838Z,47.15
2022-11-04T22:21:24.699Z,46.86
2022-11-04T22:23:52.138Z,45.64
2022-11-04T22:26:22.010Z,45.59
2022-11-04T22:28:49.007Z,45.37
2022-11-04T22:31:22.106Z,45.53
2022-11-04T22:33:50.678Z,45.67
2022-11-04T22:36:18.103Z,45.65
2022-11-04T22:38:45.036Z,46.31
2022-11-04T22:41:18.445Z,46.84
2022-11-04T22:43:45.420Z,46.79
2022-11-04T22:46:15.687Z,45.72
2022-11-04T22:48:43.070Z,45.88
2022-11-04T22:51:10.447Z,46.07
2022-11-04T22:53:38.499Z,45.58
2022-11-04T22:56:07.503Z,46.77
2022-11-04T22:58:34.803Z,47.55
2022-11-04T23:01:11.522Z,46.33
2022-11-04T23:03:39.382Z,45.89
2022-11-04T23:06:07.346Z,46.14
2022-11-04T23:08:35.838Z,45.73
2022-11-04T23:11:27.758Z,46.67
2022-11-04T23:14:20.784Z,46.16
2022-11-04T23:17:08.532Z,46.43
2022-11-04T23:19:36.759Z,46.51
2022-11-04T23:22:22.523Z,46.75
2022-11-04T23:25:09.717Z,47.08
2022-11-04T23:28:09.569Z,48.55
2022-11-04T23:30:50.537Z,46.76
2022-11-04T23:33:17.542Z,46.55
2022-11-04T23:36:06.353Z,47.86
2022-11-04T23:38:35.407Z,47.28
2022-11-04T23:41:24.655Z,47.78
2022-11-04T23:43:51.698Z,48.67
2022-11-04T23:46:42.622Z,47.82
2022-11-04T23:49:30.453Z,47.84
2022-11-04T23:52:16.242Z,48.68
2022-11-04T23:55:01.654Z,48.36
2022-11-04T23:57:47.326Z,48.46
